Panda — H8NH — position and weather

sailwx.info

Track history (hours):
 
Tides and Currents Weather Stations Pressure Air Temp Water Temp Dewpoint Dewpoint Depression Visibility Wind Speed Wind Dir Waves Ship Positions

Panda

Last reported at 2015-May-23 02:09 UTC. Time now 2015-May-23 02:50 UTC.
Position N 31°28' E 031°46'.

Length 171 m; draft 9 m.

Type: Cargo ship. MMSI: 352528000.

Date/timePositionNaut miles runAvg speedWind from/ knotsBaromVisibWave heightAir tempDewpointWater temp
2015-May-23 02:09N 31°28' E 031°46'0 0.0
2015-May-22 21:09N 31°28' E 031°46'0 0.0
2015-May-22 20:18N 31°28' E 031°46'0 0.0
2015-May-20 21:18N 31°28' E 031°46'0 0.0
2015-May-20 20:27N 31°28' E 031°46'0 0.0
2015-May-20 17:27N 31°28' E 031°46'0 0.0
2015-May-20 16:30N 31°28' E 031°46'0 0.0
2015-May-20 15:18N 31°28' E 031°46'0 0.0
2015-May-20 13:30N 31°28' E 031°46'0 0.0
2015-May-20 12:30N 31°28' E 031°46'0 0.0
2015-May-20 11:33N 31°28' E 031°46'0 0.0
2015-May-20 10:21N 31°28' E 031°46'0 0.0
2015-May-20 09:33N 31°28' E 031°46'0 0.0
2015-May-20 08:33N 31°28' E 031°46'11 1.1
2015-May-19 22:25N 31°38' E 031°44'0 0.0
2015-May-19 15:28N 31°38' E 031°44'0 0.0
2015-May-19 14:10N 31°38' E 031°44'0 0.0
2015-May-19 08:29N 31°38' E 031°44'0 0.0
2015-May-19 07:29N 31°38' E 031°44'0 0.0
2015-May-18 21:11N 31°38' E 031°44'0 0.0
2015-May-18 20:22N 31°38' E 031°44'0 0.0
2015-May-18 19:22N 31°38' E 031°44'0 0.0
2015-May-18 18:31N 31°38' E 031°44'0 0.0
2015-May-18 17:31N 31°38' E 031°44'0 0.0
2015-May-18 16:32N 31°38' E 031°44'0 0.0
2015-May-18 15:32N 31°38' E 031°44'0 0.0
2015-May-18 14:31N 31°38' E 031°44'0 0.0
2015-May-18 13:32N 31°38' E 031°44'0 0.0
2015-May-18 12:32N 31°38' E 031°44'0 0.0
2015-May-18 11:16N 31°38' E 031°44'0 0.0
2015-May-17 18:22N 31°38' E 031°44'0 0.0
2015-May-17 17:31N 31°38' E 031°44'0 0.0
2015-May-17 16:31N 31°38' E 031°44'0 0.0
2015-May-17 15:29N 31°38' E 031°44'0 0.0
2015-May-17 14:22N 31°38' E 031°44'0 0.0
2015-May-17 08:19N 31°38' E 031°44'0 0.0
2015-May-17 07:23N 31°38' E 031°44'0 0.0
2015-May-17 06:29N 31°38' E 031°44'0 0.0
2015-May-17 01:10N 31°38' E 031°44'0 0.0
2015-May-16 16:07N 31°38' E 031°44'0 0.0
2015-May-16 15:28N 31°38' E 031°44'0 0.0
2015-May-16 14:22N 31°38' E 031°44'0 0.0
2015-May-16 13:04N 31°38' E 031°44'0 0.0
2015-May-16 11:23N 31°38' E 031°44'95 7.9
2015-May-15 23:16N 32°54' E 030°36'19 9.8
2015-May-15 21:20N 33°06' E 030°18'25311.1
2015-May-14 22:28N 36°16' E 026°55'1410.8
2015-May-14 21:11N 36°27' E 026°44'1710.7
2015-May-14 19:33N 36°40' E 026°30'1211.1
2015-May-14 18:29N 36°49' E 026°21'1011.0
2015-May-14 17:33N 36°57' E 026°12'1110.8
2015-May-14 16:32N 37°07' E 026°06'1110.7
2015-May-14 15:33N 37°16' E 025°59'1110.9
2015-May-14 14:34N 37°26' E 025°53'1110.6
2015-May-14 13:33N 37°36' E 025°49'1110.7
2015-May-14 12:33N 37°46' E 025°46'261 8.9
2015-May-13 07:13N 41°16' E 029°08'  
Track history (hours):
 
Tides and Currents Weather Stations Pressure Air Temp Water Temp Dewpoint Dewpoint Depression Visibility Wind Speed Wind Dir Waves Ship Positions

Panda

Last reported at 2015-May-23 02:09 UTC. Time now 2015-May-23 02:50 UTC.
Position N 31°28' E 031°46'.

Length 171 m; draft 9 m.

Type: Cargo ship. MMSI: 352528000.

Date/timePositionNaut miles runAvg speedWind from/ knotsBaromVisibWave heightAir tempDewpointWater temp
2015-May-23 02:09N 31°28' E 031°46'0 0.0
2015-May-22 21:09N 31°28' E 031°46'0 0.0
2015-May-22 20:18N 31°28' E 031°46'0 0.0
2015-May-20 21:18N 31°28' E 031°46'0 0.0
2015-May-20 20:27N 31°28' E 031°46'0 0.0
2015-May-20 17:27N 31°28' E 031°46'0 0.0
2015-May-20 16:30N 31°28' E 031°46'0 0.0
2015-May-20 15:18N 31°28' E 031°46'0 0.0
2015-May-20 13:30N 31°28' E 031°46'0 0.0
2015-May-20 12:30N 31°28' E 031°46'0 0.0
2015-May-20 11:33N 31°28' E 031°46'0 0.0
2015-May-20 10:21N 31°28' E 031°46'0 0.0
2015-May-20 09:33N 31°28' E 031°46'0 0.0
2015-May-20 08:33N 31°28' E 031°46'11 1.1
2015-May-19 22:25N 31°38' E 031°44'0 0.0
2015-May-19 15:28N 31°38' E 031°44'0 0.0
2015-May-19 14:10N 31°38' E 031°44'0 0.0
2015-May-19 08:29N 31°38' E 031°44'0 0.0
2015-May-19 07:29N 31°38' E 031°44'0 0.0
2015-May-18 21:11N 31°38' E 031°44'0 0.0
2015-May-18 20:22N 31°38' E 031°44'0 0.0
2015-May-18 19:22N 31°38' E 031°44'0 0.0
2015-May-18 18:31N 31°38' E 031°44'0 0.0
2015-May-18 17:31N 31°38' E 031°44'0 0.0
2015-May-18 16:32N 31°38' E 031°44'0 0.0
2015-May-18 15:32N 31°38' E 031°44'0 0.0
2015-May-18 14:31N 31°38' E 031°44'0 0.0
2015-May-18 13:32N 31°38' E 031°44'0 0.0
2015-May-18 12:32N 31°38' E 031°44'0 0.0
2015-May-18 11:16N 31°38' E 031°44'0 0.0
2015-May-17 18:22N 31°38' E 031°44'0 0.0
2015-May-17 17:31N 31°38' E 031°44'0 0.0
2015-May-17 16:31N 31°38' E 031°44'0 0.0
2015-May-17 15:29N 31°38' E 031°44'0 0.0
2015-May-17 14:22N 31°38' E 031°44'0 0.0
2015-May-17 08:19N 31°38' E 031°44'0 0.0
2015-May-17 07:23N 31°38' E 031°44'0 0.0
2015-May-17 06:29N 31°38' E 031°44'0 0.0
2015-May-17 01:10N 31°38' E 031°44'0 0.0
2015-May-16 16:07N 31°38' E 031°44'0 0.0
2015-May-16 15:28N 31°38' E 031°44'0 0.0
2015-May-16 14:22N 31°38' E 031°44'0 0.0
2015-May-16 13:04N 31°38' E 031°44'0 0.0
2015-May-16 11:23N 31°38' E 031°44'95 7.9
2015-May-15 23:16N 32°54' E 030°36'19 9.8
2015-May-15 21:20N 33°06' E 030°18'25311.1
2015-May-14 22:28N 36°16' E 026°55'1410.8
2015-May-14 21:11N 36°27' E 026°44'1710.7
2015-May-14 19:33N 36°40' E 026°30'1211.1
2015-May-14 18:29N 36°49' E 026°21'1011.0
2015-May-14 17:33N 36°57' E 026°12'1110.8
2015-May-14 16:32N 37°07' E 026°06'1110.7
2015-May-14 15:33N 37°16' E 025°59'1110.9
2015-May-14 14:34N 37°26' E 025°53'1110.6
2015-May-14 13:33N 37°36' E 025°49'1110.7
2015-May-14 12:33N 37°46' E 025°46'261 8.9
2015-May-13 07:13N 41°16' E 029°08'  

Dump ship's entire track history